Time;durP1;ratioP1;P1;durP2;ratioP2;P2;SDS_P1;SDS_P2;PMS_P1;PMS_P2;Temp;Humidity;BMP_temperature;BMP_pressure;BME280_temperature;BME280_humidity;BME280_pressure;Samples;Min_cycle;Max_cycle;Signal;HPM_P1;HPM_P2
2024/03/03 00:02:10;;;;;;;9.82;4.38;;;;;;;;;;5064849;28;20025;-58
2024/03/03 00:04:36;;;;;;;7.47;2.95;;;;;;;;;;5064910;28;20154;-55
2024/03/03 00:07:02;;;;;;;9.65;4.47;;;;;;;;;;5059137;28;20059;-59
2024/03/03 00:09:28;;;;;;;8.85;3.80;;;;;;;;;;5068812;28;20032;-58
2024/03/03 00:11:54;;;;;;;11.27;5.28;;;;;;;;;;5070118;28;20032;-58
2024/03/03 00:14:21;;;;;;;11.32;5.53;;;;;;;;;;5063970;28;20021;-56
2024/03/03 00:16:47;;;;;;;10.00;5.07;;;;;;;;;;5063671;28;20029;-58
2024/03/03 00:19:13;;;;;;;9.48;6.03;;;;;;;;;;5065385;28;20025;-58
2024/03/03 00:21:39;;;;;;;10.25;4.65;;;;;;;;;;5057774;28;20023;-58
2024/03/03 00:24:05;;;;;;;10.60;5.50;;;;;;;;;;5059278;28;20040;-59
2024/03/03 00:26:33;;;;;;;10.63;5.22;;;;;;;;;;5055809;28;20031;-59
2024/03/03 00:28:59;;;;;;;10.32;5.65;;;;;;;;;;5056420;28;20028;-55
2024/03/03 00:31:25;;;;;;;10.20;5.55;;;;;;;;;;5060011;28;20033;-58
2024/03/03 00:33:51;;;;;;;11.55;5.32;;;;;;;;;;5066343;28;20035;-58
2024/03/03 00:36:17;;;;;;;10.70;5.82;;;;;;;;;;5054103;28;20032;-57
2024/03/03 00:38:43;;;;;;;11.75;5.82;;;;;;;;;;5057819;28;20025;-57
2024/03/03 00:41:09;;;;;;;13.63;5.90;;;;;;;;;;5056348;28;20432;-58
2024/03/03 00:43:35;;;;;;;13.32;6.28;;;;;;;;;;5063999;28;20013;-56
2024/03/03 00:46:01;;;;;;;12.82;6.47;;;;;;;;;;5061233;28;20071;-57
2024/03/03 00:48:27;;;;;;;10.30;5.88;;;;;;;;;;5056037;28;20037;-58
2024/03/03 00:50:53;;;;;;;13.65;7.15;;;;;;;;;;5059543;28;20033;-57
2024/03/03 00:53:20;;;;;;;12.02;5.72;;;;;;;;;;5048981;28;20027;-58
2024/03/03 00:55:47;;;;;;;12.70;6.00;;;;;;;;;;5057556;28;20037;-58
2024/03/03 00:58:16;;;;;;;11.60;6.18;;;;;;;;;;5059151;28;20351;-58
2024/03/03 01:00:42;;;;;;;12.00;5.50;;;;;;;;;;5059479;28;20032;-57
2024/03/03 01:03:08;;;;;;;11.13;5.55;;;;;;;;;;5055237;28;20095;-56
2024/03/03 01:05:34;;;;;;;11.65;5.68;;;;;;;;;;5061110;28;20031;-58
2024/03/03 01:08:00;;;;;;;15.82;6.15;;;;;;;;;;5058822;28;20028;-57
2024/03/03 01:10:26;;;;;;;14.05;5.80;;;;;;;;;;5056716;28;20028;-58
2024/03/03 01:12:52;;;;;;;15.10;6.97;;;;;;;;;;5057923;28;20562;-58
2024/03/03 01:15:18;;;;;;;10.85;5.05;;;;;;;;;;5057264;28;20021;-58
2024/03/03 01:17:44;;;;;;;14.27;5.50;;;;;;;;;;5058833;28;20115;-58
2024/03/03 01:20:11;;;;;;;11.30;6.30;;;;;;;;;;5058738;28;20073;-56
2024/03/03 01:22:37;;;;;;;14.48;5.90;;;;;;;;;;5055598;28;20535;-59
2024/03/03 01:25:03;;;;;;;10.30;5.68;;;;;;;;;;5054186;28;20560;-59
2024/03/03 01:27:30;;;;;;;11.35;5.80;;;;;;;;;;5056001;28;20049;-56
2024/03/03 01:29:56;;;;;;;11.50;6.03;;;;;;;;;;5057669;28;20060;-56
2024/03/03 01:32:25;;;;;;;9.68;5.40;;;;;;;;;;5057722;28;20056;-57
2024/03/03 01:34:51;;;;;;;10.57;4.93;;;;;;;;;;5057672;28;20425;-56
2024/03/03 01:37:20;;;;;;;11.25;6.22;;;;;;;;;;5059428;28;20120;-58
2024/03/03 01:39:46;;;;;;;9.68;5.50;;;;;;;;;;5059881;28;20084;-59
2024/03/03 01:42:12;;;;;;;13.35;6.07;;;;;;;;;;5053926;28;20497;-58
2024/03/03 01:44:38;;;;;;;9.95;5.05;;;;;;;;;;5054815;28;20033;-58
2024/03/03 01:47:04;;;;;;;12.32;5.30;;;;;;;;;;5066883;28;20051;-58
2024/03/03 01:49:33;;;;;;;11.40;5.53;;;;;;;;;;5062544;28;20344;-59
2024/03/03 01:52:01;;;;;;;11.73;4.97;;;;;;;;;;5062947;28;20556;-58
2024/03/03 01:54:27;;;;;;;9.52;4.60;;;;;;;;;;5068028;28;20089;-57
2024/03/03 01:56:55;;;;;;;12.10;4.65;;;;;;;;;;5061144;28;20448;-59
2024/03/03 01:59:21;;;;;;;8.18;4.88;;;;;;;;;;5062053;28;20043;-57
2024/03/03 02:01:48;;;;;;;10.93;4.93;;;;;;;;;;5059651;28;20087;-56
2024/03/03 02:04:14;;;;;;;10.05;4.53;;;;;;;;;;5060104;28;20463;-57
2024/03/03 02:06:42;;;;;;;16.83;5.13;;;;;;;;;;5064087;28;20025;-55
2024/03/03 02:09:08;;;;;;;12.48;5.30;;;;;;;;;;5061919;28;20378;-56
2024/03/03 02:11:34;;;;;;;12.35;5.20;;;;;;;;;;5063090;28;20017;-55
2024/03/03 02:14:00;;;;;;;10.75;4.68;;;;;;;;;;5069190;28;20076;-55
2024/03/03 02:16:26;;;;;;;11.40;4.85;;;;;;;;;;5067680;28;20040;-58
2024/03/03 02:18:52;;;;;;;15.32;5.10;;;;;;;;;;5069786;28;20025;-59
2024/03/03 02:21:24;;;;;;;7.50;4.90;;;;;;;;;;5070071;28;20099;-58
2024/03/03 02:23:51;;;;;;;9.77;4.85;;;;;;;;;;5072130;28;20028;-57
2024/03/03 02:26:19;;;;;;;11.23;5.03;;;;;;;;;;5073221;28;20044;-57
2024/03/03 02:28:45;;;;;;;11.43;5.15;;;;;;;;;;5072610;28;20024;-58
2024/03/03 02:31:11;;;;;;;8.90;4.43;;;;;;;;;;5062639;28;20023;-57
2024/03/03 02:33:37;;;;;;;12.52;4.97;;;;;;;;;;5076382;28;20035;-59
2024/03/03 02:36:03;;;;;;;10.18;4.90;;;;;;;;;;5073340;28;20116;-59
2024/03/03 02:38:29;;;;;;;11.85;4.20;;;;;;;;;;5074957;28;20047;-57
2024/03/03 02:40:55;;;;;;;15.23;4.97;;;;;;;;;;5066750;28;20571;-56
2024/03/03 02:43:21;;;;;;;9.52;4.22;;;;;;;;;;5075535;28;20535;-58
2024/03/03 02:45:47;;;;;;;10.63;4.40;;;;;;;;;;5067778;28;20020;-58
2024/03/03 02:48:13;;;;;;;9.25;4.70;;;;;;;;;;5074861;28;20627;-58
2024/03/03 02:50:39;;;;;;;10.07;4.47;;;;;;;;;;5062483;28;20470;-58
2024/03/03 02:53:05;;;;;;;9.27;4.05;;;;;;;;;;5077385;28;20020;-57
2024/03/03 02:55:31;;;;;;;7.75;4.00;;;;;;;;;;5074760;28;20028;-57
2024/03/03 02:57:57;;;;;;;10.43;4.55;;;;;;;;;;5070453;28;20150;-57
2024/03/03 03:00:23;;;;;;;8.38;4.65;;;;;;;;;;5074495;28;20020;-56
2024/03/03 03:02:49;;;;;;;13.18;4.68;;;;;;;;;;5069073;28;20017;-57
2024/03/03 03:05:15;;;;;;;9.88;4.32;;;;;;;;;;5071999;28;20470;-54
2024/03/03 03:07:41;;;;;;;10.88;4.80;;;;;;;;;;5070473;28;20028;-56
2024/03/03 03:10:07;;;;;;;9.60;5.00;;;;;;;;;;5069469;28;20662;-55
2024/03/03 03:12:33;;;;;;;9.18;4.25;;;;;;;;;;5063373;28;20475;-54
2024/03/03 03:14:59;;;;;;;11.88;5.28;;;;;;;;;;5066864;28;20040;-55
2024/03/03 03:17:25;;;;;;;10.27;4.78;;;;;;;;;;5071010;28;20470;-54
2024/03/03 03:19:51;;;;;;;10.93;4.70;;;;;;;;;;5064238;28;20111;-58
2024/03/03 03:22:17;;;;;;;9.85;4.93;;;;;;;;;;5078551;28;20024;-57
2024/03/03 03:24:43;;;;;;;11.77;4.40;;;;;;;;;;5071776;28;20422;-58
2024/03/03 03:27:09;;;;;;;9.55;5.18;;;;;;;;;;5065504;28;20100;-57
2024/03/03 03:29:35;;;;;;;9.90;4.55;;;;;;;;;;5071289;28;20107;-59
2024/03/03 03:32:01;;;;;;;11.63;5.65;;;;;;;;;;5072879;28;20055;-57
2024/03/03 03:34:27;;;;;;;11.80;5.05;;;;;;;;;;5073725;28;20409;-57
2024/03/03 03:36:54;;;;;;;13.77;5.47;;;;;;;;;;5066968;28;20106;-58
2024/03/03 03:39:20;;;;;;;15.02;5.47;;;;;;;;;;5067690;28;20027;-57
2024/03/03 03:41:47;;;;;;;11.32;5.20;;;;;;;;;;5058988;28;20063;-56
2024/03/03 03:44:13;;;;;;;13.73;5.78;;;;;;;;;;5072365;28;20060;-58
2024/03/03 03:46:40;;;;;;;13.55;6.43;;;;;;;;;;5064163;28;20120;-57
2024/03/03 03:49:12;;;;;;;15.57;5.28;;;;;;;;;;5068256;28;20031;-54
2024/03/03 03:51:39;;;;;;;10.80;5.15;;;;;;;;;;5066267;28;20020;-55
2024/03/03 03:54:05;;;;;;;10.75;4.85;;;;;;;;;;5067986;28;20712;-57
2024/03/03 03:56:34;;;;;;;12.23;5.78;;;;;;;;;;5061719;28;20052;-55
2024/03/03 03:59:00;;;;;;;12.00;5.07;;;;;;;;;;5053744;28;20035;-56
2024/03/03 04:01:27;;;;;;;12.90;5.07;;;;;;;;;;5064435;28;20059;-57
2024/03/03 04:03:57;;;;;;;9.45;4.50;;;;;;;;;;5059775;28;20065;-57
2024/03/03 04:06:26;;;;;;;12.45;6.18;;;;;;;;;;5059725;28;20043;-57
2024/03/03 04:08:53;;;;;;;15.25;6.00;;;;;;;;;;5057880;28;20090;-57
2024/03/03 04:11:19;;;;;;;14.27;6.07;;;;;;;;;;5059005;28;20483;-55
2024/03/03 04:13:48;;;;;;;17.20;6.20;;;;;;;;;;5061581;28;20474;-54
2024/03/03 04:16:14;;;;;;;17.10;6.75;;;;;;;;;;5061949;28;20036;-57
2024/03/03 04:18:40;;;;;;;12.10;5.85;;;;;;;;;;5059059;28;20024;-56
2024/03/03 04:21:06;;;;;;;12.10;6.63;;;;;;;;;;5060189;28;20039;-55
2024/03/03 04:23:32;;;;;;;15.68;7.18;;;;;;;;;;5059051;28;20029;-59
2024/03/03 04:25:58;;;;;;;16.77;6.82;;;;;;;;;;5060680;28;20024;-58
2024/03/03 04:28:24;;;;;;;16.92;7.18;;;;;;;;;;5057939;28;20857;-58
2024/03/03 04:30:50;;;;;;;19.35;6.78;;;;;;;;;;5061587;28;20072;-59
2024/03/03 04:33:16;;;;;;;11.77;5.88;;;;;;;;;;5055354;28;20518;-56
2024/03/03 04:35:42;;;;;;;19.25;7.10;;;;;;;;;;5057956;28;20062;-58
2024/03/03 04:38:11;;;;;;;17.17;6.45;;;;;;;;;;5060102;28;20021;-57
2024/03/03 04:40:37;;;;;;;18.30;6.93;;;;;;;;;;5060229;28;20037;-58
2024/03/03 04:43:03;;;;;;;15.98;6.80;;;;;;;;;;5058743;28;20139;-58
2024/03/03 04:45:29;;;;;;;17.15;7.30;;;;;;;;;;5063571;28;20025;-58
2024/03/03 04:47:55;;;;;;;17.20;7.05;;;;;;;;;;5060168;28;20563;-58
2024/03/03 04:50:21;;;;;;;19.95;7.63;;;;;;;;;;5060068;28;20040;-59
2024/03/03 04:52:47;;;;;;;18.10;6.65;;;;;;;;;;5058402;28;20028;-57
2024/03/03 04:55:13;;;;;;;16.58;7.10;;;;;;;;;;5070739;28;20118;-56
2024/03/03 04:57:39;;;;;;;18.92;7.55;;;;;;;;;;5060630;28;20553;-58
2024/03/03 05:00:08;;;;;;;23.10;7.28;;;;;;;;;;5060829;28;20376;-58
2024/03/03 05:02:35;;;;;;;14.98;7.13;;;;;;;;;;5055687;28;20025;-58
2024/03/03 05:05:01;;;;;;;16.80;7.40;;;;;;;;;;5060536;28;21398;-58
2024/03/03 05:07:27;;;;;;;16.50;7.18;;;;;;;;;;5057718;28;20020;-59
2024/03/03 05:09:53;;;;;;;28.08;8.02;;;;;;;;;;5058942;28;20038;-60
2024/03/03 05:12:19;;;;;;;17.58;7.05;;;;;;;;;;5061891;28;20433;-56
2024/03/03 05:14:45;;;;;;;16.30;7.65;;;;;;;;;;5057000;28;20040;-59
2024/03/03 05:17:11;;;;;;;17.73;7.68;;;;;;;;;;5056124;28;20086;-58
2024/03/03 05:19:37;;;;;;;18.08;7.55;;;;;;;;;;5056256;28;20553;-57
2024/03/03 05:22:03;;;;;;;22.73;8.55;;;;;;;;;;5058677;28;20078;-56
2024/03/03 05:24:29;;;;;;;12.85;6.97;;;;;;;;;;5056765;28;20028;-54
2024/03/03 05:26:55;;;;;;;19.63;8.73;;;;;;;;;;5054204;28;20032;-57
2024/03/03 05:29:21;;;;;;;19.40;7.85;;;;;;;;;;5056100;28;20090;-58
2024/03/03 05:31:47;;;;;;;17.98;7.38;;;;;;;;;;5057699;28;20029;-57
2024/03/03 05:34:15;;;;;;;20.60;8.35;;;;;;;;;;5057850;28;20051;-56
2024/03/03 05:36:41;;;;;;;23.92;7.93;;;;;;;;;;5057926;28;20029;-57
2024/03/03 05:39:08;;;;;;;18.42;9.07;;;;;;;;;;5056802;28;20513;-55
2024/03/03 05:41:33;;;;;;;19.83;8.18;;;;;;;;;;5055462;28;20518;-54
2024/03/03 05:44:00;;;;;;;19.77;7.88;;;;;;;;;;5057883;28;20215;-55
2024/03/03 05:46:26;;;;;;;26.20;10.27;;;;;;;;;;5058003;28;20029;-58
2024/03/03 05:48:52;;;;;;;22.15;9.13;;;;;;;;;;5057513;28;20072;-56
2024/03/03 05:51:18;;;;;;;23.17;8.50;;;;;;;;;;5059955;28;20452;-55
2024/03/03 05:53:45;;;;;;;19.30;8.30;;;;;;;;;;5058170;28;20029;-59
2024/03/03 05:56:17;;;;;;;18.15;7.85;;;;;;;;;;5064637;28;20024;-56
2024/03/03 05:58:43;;;;;;;24.83;8.25;;;;;;;;;;5058617;28;20056;-54
2024/03/03 06:01:09;;;;;;;19.45;8.65;;;;;;;;;;5059687;28;20032;-56
2024/03/03 06:03:35;;;;;;;24.95;10.18;;;;;;;;;;5061550;28;20074;-57
2024/03/03 06:06:01;;;;;;;22.08;9.57;;;;;;;;;;5057961;28;20081;-58
2024/03/03 06:08:27;;;;;;;18.48;9.50;;;;;;;;;;5059304;28;20028;-55
2024/03/03 06:10:54;;;;;;;17.88;8.15;;;;;;;;;;5040687;28;20029;-56
2024/03/03 06:13:20;;;;;;;21.20;8.25;;;;;;;;;;5059895;28;20028;-57
2024/03/03 06:15:47;;;;;;;24.52;9.35;;;;;;;;;;5055692;28;20047;-56
2024/03/03 06:18:13;;;;;;;23.58;8.70;;;;;;;;;;5061066;28;20017;-56
2024/03/03 06:20:39;;;;;;;19.02;9.25;;;;;;;;;;5040356;28;20032;-59
2024/03/03 06:23:05;;;;;;;26.95;10.38;;;;;;;;;;5058752;28;20067;-58
2024/03/03 06:25:31;;;;;;;30.02;9.43;;;;;;;;;;5056266;28;20464;-57
2024/03/03 06:27:58;;;;;;;26.98;8.52;;;;;;;;;;5058587;28;20077;-57
2024/03/03 06:30:24;;;;;;;23.20;9.52;;;;;;;;;;5055855;28;20104;-55
2024/03/03 06:32:50;;;;;;;19.17;8.55;;;;;;;;;;5059154;28;20154;-58
2024/03/03 06:35:16;;;;;;;19.33;8.70;;;;;;;;;;5039360;28;20028;-59
2024/03/03 06:37:43;;;;;;;22.50;8.25;;;;;;;;;;5056175;28;20414;-56
2024/03/03 06:40:09;;;;;;;24.55;8.73;;;;;;;;;;5063331;28;20031;-57
2024/03/03 06:42:35;;;;;;;22.10;8.75;;;;;;;;;;5061505;28;20024;-57
2024/03/03 06:45:01;;;;;;;18.10;8.68;;;;;;;;;;5065398;28;20108;-58
2024/03/03 06:47:28;;;;;;;25.77;9.82;;;;;;;;;;5064052;28;20166;-59
2024/03/03 06:49:57;;;;;;;22.33;8.30;;;;;;;;;;5061443;28;20028;-56
2024/03/03 06:52:23;;;;;;;20.45;8.02;;;;;;;;;;5061065;28;20519;-58
2024/03/03 06:54:49;;;;;;;17.45;7.43;;;;;;;;;;5061283;28;20032;-58
2024/03/03 06:57:14;;;;;;;19.90;8.15;;;;;;;;;;5058177;28;20056;-58
2024/03/03 06:59:41;;;;;;;19.13;8.43;;;;;;;;;;5070174;28;20021;-58
2024/03/03 07:02:07;;;;;;;20.20;8.05;;;;;;;;;;5064584;28;20115;-54
2024/03/03 07:04:33;;;;;;;20.38;8.25;;;;;;;;;;5061360;28;20043;-56
2024/03/03 07:06:59;;;;;;;17.90;7.93;;;;;;;;;;5062721;28;20111;-58
2024/03/03 07:09:25;;;;;;;17.92;8.77;;;;;;;;;;5063194;28;20028;-57
2024/03/03 07:11:52;;;;;;;20.95;7.72;;;;;;;;;;5061394;28;20479;-54
2024/03/03 07:14:18;;;;;;;18.67;7.85;;;;;;;;;;5059987;28;20025;-59
2024/03/03 07:16:44;;;;;;;18.23;7.88;;;;;;;;;;5060057;28;20051;-58
2024/03/03 07:19:10;;;;;;;19.90;7.93;;;;;;;;;;5061244;28;20041;-58
2024/03/03 07:21:36;;;;;;;19.85;8.45;;;;;;;;;;5040212;28;20032;-58
2024/03/03 07:24:02;;;;;;;20.80;8.52;;;;;;;;;;5061028;28;20375;-58
2024/03/03 07:26:28;;;;;;;18.23;7.93;;;;;;;;;;5058370;28;20028;-58
2024/03/03 07:28:54;;;;;;;24.65;8.57;;;;;;;;;;5058603;28;20521;-54
2024/03/03 07:31:20;;;;;;;18.98;7.93;;;;;;;;;;5058547;28;20033;-57
2024/03/03 07:33:46;;;;;;;18.20;8.73;;;;;;;;;;5059436;28;20108;-56
2024/03/03 07:36:12;;;;;;;20.05;7.82;;;;;;;;;;5059650;28;20046;-57
2024/03/03 07:38:38;;;;;;;15.88;8.18;;;;;;;;;;5059218;28;20016;-56
2024/03/03 07:41:04;;;;;;;16.80;8.48;;;;;;;;;;5064916;28;20506;-57
2024/03/03 07:43:30;;;;;;;23.70;10.10;;;;;;;;;;5064164;28;20363;-55
2024/03/03 07:45:56;;;;;;;23.92;8.68;;;;;;;;;;5071500;28;20027;-55
2024/03/03 07:48:22;;;;;;;24.05;9.00;;;;;;;;;;5066148;28;20472;-54
2024/03/03 07:50:48;;;;;;;23.00;9.93;;;;;;;;;;5068655;28;20032;-58
2024/03/03 07:53:15;;;;;;;21.60;9.30;;;;;;;;;;5067342;28;20036;-56
2024/03/03 07:55:41;;;;;;;19.02;8.75;;;;;;;;;;5068104;28;20013;-59
2024/03/03 07:58:07;;;;;;;23.13;9.32;;;;;;;;;;5067641;28;20032;-58
2024/03/03 08:00:33;;;;;;;18.33;8.15;;;;;;;;;;5071788;28;20451;-54
2024/03/03 08:03:04;;;;;;;21.40;8.65;;;;;;;;;;5070785;28;20468;-58
2024/03/03 08:05:32;;;;;;;23.05;9.60;;;;;;;;;;5068341;28;20036;-57
2024/03/03 08:07:58;;;;;;;15.55;8.32;;;;;;;;;;5065462;28;20032;-56
2024/03/03 08:10:24;;;;;;;18.83;8.35;;;;;;;;;;5070367;28;20056;-55
2024/03/03 08:12:50;;;;;;;21.95;9.30;;;;;;;;;;5064758;28;20051;-57
2024/03/03 08:15:16;;;;;;;17.98;8.48;;;;;;;;;;5070184;28;20033;-53
2024/03/03 08:17:42;;;;;;;21.15;7.97;;;;;;;;;;5067574;28;20024;-58
2024/03/03 08:20:10;;;;;;;22.33;10.05;;;;;;;;;;5073579;28;20020;-58
2024/03/03 08:22:37;;;;;;;19.00;8.68;;;;;;;;;;5071379;28;20024;-58
2024/03/03 08:25:05;;;;;;;18.67;8.50;;;;;;;;;;5071016;28;20028;-58
2024/03/03 08:27:31;;;;;;;22.25;9.35;;;;;;;;;;5070049;28;20444;-57
2024/03/03 08:29:57;;;;;;;19.50;7.93;;;;;;;;;;5067057;28;20536;-57
2024/03/03 08:32:23;;;;;;;20.13;8.57;;;;;;;;;;5072546;28;20067;-57
2024/03/03 08:34:49;;;;;;;19.55;8.60;;;;;;;;;;5067132;28;20020;-57
2024/03/03 08:37:16;;;;;;;24.15;9.90;;;;;;;;;;5067174;28;20021;-57
2024/03/03 08:39:42;;;;;;;23.23;9.55;;;;;;;;;;5067674;28;20033;-57
2024/03/03 08:42:08;;;;;;;23.23;9.90;;;;;;;;;;5071190;28;20040;-57
2024/03/03 08:44:33;;;;;;;28.15;9.88;;;;;;;;;;5072284;28;20104;-55
2024/03/03 08:47:00;;;;;;;15.43;8.55;;;;;;;;;;5070549;28;20032;-58
2024/03/03 08:49:26;;;;;;;22.40;9.82;;;;;;;;;;5073956;28;20424;-58
2024/03/03 08:51:52;;;;;;;22.92;9.40;;;;;;;;;;5072362;28;20096;-53
2024/03/03 08:54:18;;;;;;;20.58;9.38;;;;;;;;;;5060563;28;20029;-57
2024/03/03 08:56:44;;;;;;;16.02;7.82;;;;;;;;;;5069238;28;20092;-56
2024/03/03 08:59:10;;;;;;;20.55;8.57;;;;;;;;;;5066534;28;20020;-55
2024/03/03 09:01:39;;;;;;;20.67;9.60;;;;;;;;;;5067357;28;20013;-58
2024/03/03 09:04:05;;;;;;;19.33;9.60;;;;;;;;;;5066110;28;20161;-64
2024/03/03 09:06:31;;;;;;;17.80;8.90;;;;;;;;;;5068497;28;20032;-58
2024/03/03 09:08:57;;;;;;;22.27;9.98;;;;;;;;;;5065516;28;20024;-59
2024/03/03 09:11:23;;;;;;;17.98;8.93;;;;;;;;;;5067942;28;20503;-59
2024/03/03 09:13:49;;;;;;;20.65;8.85;;;;;;;;;;5059029;28;20036;-58
2024/03/03 09:16:15;;;;;;;23.00;9.30;;;;;;;;;;5061450;28;20110;-57
2024/03/03 09:18:41;;;;;;;22.60;8.23;;;;;;;;;;5057965;28;20502;-58
2024/03/03 09:21:07;;;;;;;17.25;8.85;;;;;;;;;;5056963;28;20024;-57
2024/03/03 09:23:34;;;;;;;16.95;8.50;;;;;;;;;;5058663;28;20067;-59
2024/03/03 09:26:01;;;;;;;18.63;7.78;;;;;;;;;;5061864;28;20398;-56
2024/03/03 09:28:27;;;;;;;18.88;8.77;;;;;;;;;;5062680;28;20029;-58
2024/03/03 09:30:53;;;;;;;20.65;8.88;;;;;;;;;;5059967;28;20036;-59
2024/03/03 09:33:19;;;;;;;19.45;8.80;;;;;;;;;;5061676;28;20514;-59
2024/03/03 09:35:45;;;;;;;16.42;8.18;;;;;;;;;;5069258;28;20029;-60
2024/03/03 09:38:11;;;;;;;20.40;8.32;;;;;;;;;;5063084;28;20111;-57
2024/03/03 09:40:37;;;;;;;23.63;10.13;;;;;;;;;;5043215;28;20089;-57
2024/03/03 09:43:03;;;;;;;17.88;8.73;;;;;;;;;;5066105;28;20052;-58
2024/03/03 09:45:30;;;;;;;21.92;8.50;;;;;;;;;;5066656;28;20021;-58
2024/03/03 09:47:57;;;;;;;22.73;9.43;;;;;;;;;;5063229;28;20031;-56
2024/03/03 09:50:23;;;;;;;18.50;8.63;;;;;;;;;;5062790;28;20455;-58
2024/03/03 09:52:58;;;;;;;19.45;8.82;;;;;;;;;;5060520;28;20373;-57
2024/03/03 09:55:27;;;;;;;19.27;9.75;;;;;;;;;;5066282;28;20055;-56
2024/03/03 09:57:53;;;;;;;17.90;8.70;;;;;;;;;;5060756;28;20083;-57
2024/03/03 10:00:20;;;;;;;19.75;8.70;;;;;;;;;;5069663;28;20021;-57
2024/03/03 10:02:47;;;;;;;23.98;8.32;;;;;;;;;;5065689;28;20085;-57
2024/03/03 10:05:14;;;;;;;20.77;9.07;;;;;;;;;;5070484;28;20506;-58
2024/03/03 10:07:55;;;;;;;16.08;8.70;;;;;;;;;;5067461;28;20040;-57
2024/03/03 10:10:26;;;;;;;16.88;8.70;;;;;;;;;;5067315;28;20021;-56
2024/03/03 10:12:52;;;;;;;18.30;8.05;;;;;;;;;;5069279;28;20055;-59
2024/03/03 10:15:20;;;;;;;17.40;8.80;;;;;;;;;;5072057;28;20027;-57
2024/03/03 10:17:46;;;;;;;17.13;9.05;;;;;;;;;;5069364;28;20509;-57
2024/03/03 10:20:13;;;;;;;16.63;9.07;;;;;;;;;;5069238;28;20048;-57
2024/03/03 10:22:40;;;;;;;20.35;8.50;;;;;;;;;;5069438;28;20058;-57
2024/03/03 10:25:18;;;;;;;16.55;8.40;;;;;;;;;;5069869;28;20397;-56
2024/03/03 10:27:45;;;;;;;20.92;9.15;;;;;;;;;;5068775;28;20043;-60
2024/03/03 10:30:14;;;;;;;15.88;8.60;;;;;;;;;;5069130;28;20402;-61
2024/03/03 10:32:40;;;;;;;22.65;10.23;;;;;;;;;;5069383;28;20036;-59
2024/03/03 10:35:13;;;;;;;17.65;8.85;;;;;;;;;;5067910;28;20094;-57
2024/03/03 10:38:03;;;;;;;18.25;8.60;;;;;;;;;;5066603;28;20462;-58
2024/03/03 10:40:30;;;;;;;19.70;8.75;;;;;;;;;;5069606;28;20186;-58
2024/03/03 10:42:56;;;;;;;17.88;8.90;;;;;;;;;;5070974;28;20028;-56
2024/03/03 10:45:22;;;;;;;20.80;9.13;;;;;;;;;;5053321;28;20448;-59
2024/03/03 10:47:49;;;;;;;20.83;8.63;;;;;;;;;;5069962;28;20024;-58
2024/03/03 10:50:16;;;;;;;17.08;9.48;;;;;;;;;;5075184;28;20115;-56
2024/03/03 10:52:42;;;;;;;20.10;8.93;;;;;;;;;;5068540;28;20043;-56
2024/03/03 10:55:12;;;;;;;18.80;9.13;;;;;;;;;;5070578;28;20021;-57
2024/03/03 10:57:43;;;;;;;21.33;10.15;;;;;;;;;;5065989;28;20021;-57
2024/03/03 11:00:14;;;;;;;18.63;8.25;;;;;;;;;;5068750;28;20405;-57
2024/03/03 11:02:41;;;;;;;19.58;9.40;;;;;;;;;;5070599;28;20032;-56
2024/03/03 11:05:08;;;;;;;16.88;8.38;;;;;;;;;;5066014;28;20104;-57
2024/03/03 11:07:36;;;;;;;16.15;7.50;;;;;;;;;;5070115;28;20028;-57
2024/03/03 11:10:04;;;;;;;17.30;8.65;;;;;;;;;;5065444;28;20052;-56
2024/03/03 11:12:31;;;;;;;18.15;8.25;;;;;;;;;;5066793;28;20037;-56
2024/03/03 11:14:57;;;;;;;14.40;8.45;;;;;;;;;;5069663;28;20100;-58
2024/03/03 11:17:26;;;;;;;18.52;9.07;;;;;;;;;;5073494;28;20031;-56
2024/03/03 11:19:54;;;;;;;20.00;9.23;;;;;;;;;;5070228;28;20546;-54
2024/03/03 11:22:19;;;;;;;16.17;8.82;;;;;;;;;;5063348;28;20025;-57
2024/03/03 11:24:52;;;;;;;20.90;9.00;;;;;;;;;;5066491;28;20028;-58
2024/03/03 11:27:21;;;;;;;15.63;8.48;;;;;;;;;;5069043;28;20028;-56
2024/03/03 11:29:48;;;;;;;19.00;8.82;;;;;;;;;;5071491;28;20024;-58
2024/03/03 11:32:15;;;;;;;19.60;8.40;;;;;;;;;;5070108;28;20127;-57
2024/03/03 11:34:43;;;;;;;18.17;9.00;;;;;;;;;;5067998;28;20054;-55
2024/03/03 11:37:09;;;;;;;16.85;9.05;;;;;;;;;;5065128;28;20076;-59
2024/03/03 11:39:37;;;;;;;23.77;8.73;;;;;;;;;;5068400;28;20020;-55
2024/03/03 11:42:19;;;;;;;22.60;10.38;;;;;;;;;;5069572;28;20733;-57
2024/03/03 11:44:49;;;;;;;18.73;8.63;;;;;;;;;;5065430;28;20625;-56
2024/03/03 11:47:15;;;;;;;16.10;8.38;;;;;;;;;;5070133;28;20028;-56
2024/03/03 11:49:42;;;;;;;20.50;10.10;;;;;;;;;;5069362;28;20031;-58
2024/03/03 11:52:08;;;;;;;15.48;8.35;;;;;;;;;;5070814;28;20033;-58
2024/03/03 11:54:39;;;;;;;16.60;8.27;;;;;;;;;;5053554;28;20142;-55
2024/03/03 11:57:10;;;;;;;17.60;8.45;;;;;;;;;;5066331;28;20028;-56
2024/03/03 11:59:45;;;;;;;20.88;9.18;;;;;;;;;;5068897;28;20481;-55
2024/03/03 12:02:13;;;;;;;18.08;9.20;;;;;;;;;;5068737;28;20562;-54
2024/03/03 12:04:42;;;;;;;18.38;9.40;;;;;;;;;;5065444;28;20429;-54
2024/03/03 12:07:11;;;;;;;19.15;9.77;;;;;;;;;;5066626;28;20025;-57
2024/03/03 12:09:41;;;;;;;16.27;8.15;;;;;;;;;;5068082;28;20082;-56
2024/03/03 12:12:07;;;;;;;21.02;9.82;;;;;;;;;;5065735;28;20039;-54
2024/03/03 12:14:33;;;;;;;18.92;9.38;;;;;;;;;;5066789;28;20382;-55
2024/03/03 12:16:59;;;;;;;18.95;9.10;;;;;;;;;;5065216;28;20104;-57
2024/03/03 12:19:25;;;;;;;15.43;8.00;;;;;;;;;;5067195;28;20616;-56
2024/03/03 12:21:51;;;;;;;20.58;9.15;;;;;;;;;;5066155;28;20199;-57
2024/03/03 12:24:17;;;;;;;18.98;8.07;;;;;;;;;;5066275;28;20112;-58
2024/03/03 12:26:43;;;;;;;15.98;8.00;;;;;;;;;;5064233;28;20021;-54
2024/03/03 12:29:09;;;;;;;13.57;7.55;;;;;;;;;;5075092;28;20036;-55
2024/03/03 12:31:35;;;;;;;28.05;9.20;;;;;;;;;;5069256;28;20031;-56
2024/03/03 12:34:01;;;;;;;18.42;7.85;;;;;;;;;;5069988;28;20033;-57
2024/03/03 12:36:27;;;;;;;12.13;6.82;;;;;;;;;;5071514;28;20076;-58
2024/03/03 12:38:53;;;;;;;16.55;7.90;;;;;;;;;;5076167;28;20092;-57
2024/03/03 12:41:19;;;;;;;15.77;8.38;;;;;;;;;;5075933;28;20036;-57
2024/03/03 12:43:45;;;;;;;12.13;6.70;;;;;;;;;;5067917;28;20028;-58
2024/03/03 12:46:11;;;;;;;13.25;7.10;;;;;;;;;;5072633;28;20027;-59
2024/03/03 12:48:38;;;;;;;12.95;6.68;;;;;;;;;;5072188;28;20025;-57
2024/03/03 12:51:04;;;;;;;13.15;6.47;;;;;;;;;;5071986;28;20103;-58
2024/03/03 12:53:30;;;;;;;13.05;6.90;;;;;;;;;;5073310;28;20046;-57
2024/03/03 12:55:58;;;;;;;13.00;7.03;;;;;;;;;;5070952;28;20076;-60
2024/03/03 12:58:24;;;;;;;13.65;6.50;;;;;;;;;;5071168;28;20146;-59
2024/03/03 13:00:50;;;;;;;12.40;7.53;;;;;;;;;;5071992;28;20024;-59
2024/03/03 13:03:19;;;;;;;14.88;6.38;;;;;;;;;;5050589;28;20495;-54
2024/03/03 13:05:48;;;;;;;9.10;5.57;;;;;;;;;;5059872;28;20070;-56
2024/03/03 13:08:15;;;;;;;8.52;5.22;;;;;;;;;;5066330;28;20023;-56
2024/03/03 13:10:41;;;;;;;11.35;5.82;;;;;;;;;;5072689;28;20017;-53
2024/03/03 13:13:11;;;;;;;10.70;6.13;;;;;;;;;;5050232;28;20040;-56
2024/03/03 13:15:37;;;;;;;11.20;5.90;;;;;;;;;;5067279;28;20433;-55
2024/03/03 13:18:16;;;;;;;10.52;5.10;;;;;;;;;;5061166;28;20116;-56
2024/03/03 13:20:42;;;;;;;10.05;5.78;;;;;;;;;;5060817;28;20032;-57
2024/03/03 13:23:12;;;;;;;9.60;4.90;;;;;;;;;;5067407;28;20033;-57
2024/03/03 13:25:38;;;;;;;8.95;4.93;;;;;;;;;;5069489;28;20030;-55
2024/03/03 13:28:06;;;;;;;11.00;5.95;;;;;;;;;;5070339;28;20036;-56
2024/03/03 13:30:32;;;;;;;8.88;5.05;;;;;;;;;;5072991;28;20024;-57
2024/03/03 13:32:58;;;;;;;10.05;5.20;;;;;;;;;;5072033;28;20051;-56
2024/03/03 13:35:24;;;;;;;9.30;5.03;;;;;;;;;;5073270;28;20029;-60
2024/03/03 13:37:50;;;;;;;11.30;4.43;;;;;;;;;;5070388;28;20020;-57
2024/03/03 13:40:16;;;;;;;8.07;4.95;;;;;;;;;;5065247;28;20485;-56
2024/03/03 13:42:42;;;;;;;7.95;4.80;;;;;;;;;;5066782;28;20411;-57
2024/03/03 13:45:08;;;;;;;7.60;4.43;;;;;;;;;;5067391;28;20079;-58
2024/03/03 13:47:34;;;;;;;9.75;5.57;;;;;;;;;;5070282;28;20024;-56
2024/03/03 13:50:00;;;;;;;8.48;4.55;;;;;;;;;;5075006;28;20050;-57
2024/03/03 13:52:27;;;;;;;5.40;3.85;;;;;;;;;;5069269;28;20108;-56
2024/03/03 13:54:53;;;;;;;11.02;4.57;;;;;;;;;;5071046;28;20085;-58
2024/03/03 13:57:19;;;;;;;10.50;4.82;;;;;;;;;;5068950;28;20032;-57
2024/03/03 13:59:45;;;;;;;8.68;4.43;;;;;;;;;;5069109;28;20059;-55
2024/03/03 14:02:11;;;;;;;7.20;4.45;;;;;;;;;;5061968;28;20048;-58
2024/03/03 14:04:37;;;;;;;6.47;3.60;;;;;;;;;;5066069;28;20088;-56
2024/03/03 14:07:03;;;;;;;10.27;4.13;;;;;;;;;;5060656;28;20121;-57
2024/03/03 14:09:30;;;;;;;6.28;3.80;;;;;;;;;;5067271;28;20102;-55
2024/03/03 14:11:56;;;;;;;5.72;3.95;;;;;;;;;;5059938;28;20025;-56
2024/03/03 14:14:22;;;;;;;6.75;4.00;;;;;;;;;;5067168;28;20032;-57
2024/03/03 14:16:48;;;;;;;7.22;4.35;;;;;;;;;;5060188;28;20063;-56
2024/03/03 14:19:14;;;;;;;8.80;4.05;;;;;;;;;;5065942;28;20060;-56
2024/03/03 14:21:43;;;;;;;9.63;4.68;;;;;;;;;;5068267;28;20665;-56
2024/03/03 14:24:08;;;;;;;5.38;3.88;;;;;;;;;;5060173;28;20029;-56
2024/03/03 14:26:34;;;;;;;7.38;4.10;;;;;;;;;;5072803;28;20024;-56
2024/03/03 14:29:00;;;;;;;10.55;4.32;;;;;;;;;;5063326;28;20032;-55